الصفحة الرئيسية
METAR-TAF:

METAR-TAF

مطار :

Puerto Peñasco, المكسيك

دائرة عرض: 31-21-07N, خط طول: 113-18-20W, ارتفاع: 22 متر

مراقبة الطقس الحالي

تاريخ ووقت الإصدار 18ساعات و 39 دقيقة قبل الساعة 16:42UTC
ريح 5 عقدة من الغرب/الشمال الغربي
درجة الحرارة 33°درجة مئوية
الرطوبة 23%
ضغط 1011 hPa
الرؤية: 16.1 كم
سماء صافية

METAR: MMPE 281642Z 30005KT 10SM SKC 33/09 A2986 RMK RTS

زمن: 04:21 (11:21 UTC)


TAF: مفقودة

أرصاد الطقس والتوقعات من أكثر من 4000 مطار (تقارير الطقس للمطار METAR والتنبؤ بالطقس بالمطارTAF).

المحطات المتاحة هي النقط الصفراء والحمراء على الخريطة.

حرك المؤشر فوق النقطة لمعرفة اسم المحطة.

ثم انقر لمعرفة أرصاد وتوقعات الطقس.

لتغيير الخارطة: اضغط على الأزرار الخضراء مع رمز الصليب الأسود للتكبير. على الزر الأخضر مع شرطة للتصغير، أو على الأسهم الخضراء للخرائط المجاورة.


METAR-TAF: